Main page
METAR-TAF:

METAR-TAF

Airports :

Shaikh Zayed International Airport

Rahim Yar Khan, Pakistan

latitude: 28-23-02N, longitude: 70-16-47E, elevation: 83 m

METAR: missing

Time: 02:24 (21:24 UTC)

Forecast

The report was made 5 hours and 39 minutes ago, at 15:45 UTC
Forecast valid from 28 at 18 UTC to 29 at 12 UTC
Wind 5 kt from the Southeast
Visibility: 4000 m
smoke
Probability 30% :
Temporary
from 29 at 02 UTC to 29 at 05 UTC
Wind kt from the North
Visibility: 2500 m
Few clouds at a height of 12000 ft
smoke
From 29 at 0700 UTC
Wind 10 kt from the Southwest
Visibility: 6000 m

TAF: OPRK 281545Z 2818/2912 13005KT 4000 FU NSC TN17/2901Z TX34/2901Z PROB30 TEMPO 2902/2905 00000KT 2500 FU FEW120 FM290700 23010KT 6000 NSC

Weather observations and forecasts of more than 4000 airports (METAR and TAF reports).

The available stations are represented by yellow and red dots on the map.

Hover mouse over dot to see the name of the station.

Then click to see weather observations and forecasts.

To change the map : click on the green buttons with a black cross to zoom in, on the green button with a dash to zoom out, or on the green arrows for adjacent maps.


METAR-TAF: